sensor_id;sensor_type;location;lat;lon;timestamp;P1;durP1;ratioP1;P2;durP2;ratioP2
57746;SDS011;43580;44.014;20.466;2023-04-03T00:02:07;36.47;;;21.92;;
57746;SDS011;43580;44.014;20.466;2023-04-03T00:04:33;33.58;;;21.45;;
57746;SDS011;43580;44.014;20.466;2023-04-03T00:06:59;38.45;;;22.63;;
57746;SDS011;43580;44.014;20.466;2023-04-03T00:09:28;35.80;;;20.65;;
57746;SDS011;43580;44.014;20.466;2023-04-03T00:11:54;56.78;;;32.08;;
57746;SDS011;43580;44.014;20.466;2023-04-03T00:14:20;85.07;;;47.60;;
57746;SDS011;43580;44.014;20.466;2023-04-03T00:16:46;99.68;;;55.95;;
57746;SDS011;43580;44.014;20.466;2023-04-03T00:19:12;104.40;;;57.90;;
57746;SDS011;43580;44.014;20.466;2023-04-03T00:21:38;88.53;;;49.90;;
57746;SDS011;43580;44.014;20.466;2023-04-03T00:24:05;74.22;;;46.97;;
57746;SDS011;43580;44.014;20.466;2023-04-03T00:26:31;80.72;;;50.28;;
57746;SDS011;43580;44.014;20.466;2023-04-03T00:29:00;79.45;;;46.00;;
57746;SDS011;43580;44.014;20.466;2023-04-03T00:31:26;76.70;;;44.67;;
57746;SDS011;43580;44.014;20.466;2023-04-03T00:33:52;70.88;;;43.70;;
57746;SDS011;43580;44.014;20.466;2023-04-03T00:36:18;93.40;;;54.38;;
57746;SDS011;43580;44.014;20.466;2023-04-03T00:38:44;108.30;;;62.20;;
57746;SDS011;43580;44.014;20.466;2023-04-03T00:41:15;79.10;;;45.28;;
57746;SDS011;43580;44.014;20.466;2023-04-03T00:43:41;65.45;;;39.05;;
57746;SDS011;43580;44.014;20.466;2023-04-03T00:46:09;69.63;;;38.92;;
57746;SDS011;43580;44.014;20.466;2023-04-03T00:48:45;80.80;;;44.83;;
57746;SDS011;43580;44.014;20.466;2023-04-03T00:51:22;72.68;;;40.08;;
57746;SDS011;43580;44.014;20.466;2023-04-03T00:53:50;100.28;;;52.50;;
57746;SDS011;43580;44.014;20.466;2023-04-03T00:56:19;80.30;;;44.58;;
57746;SDS011;43580;44.014;20.466;2023-04-03T00:59:10;58.67;;;35.80;;
57746;SDS011;43580;44.014;20.466;2023-04-03T01:01:34;67.78;;;36.60;;
57746;SDS011;43580;44.014;20.466;2023-04-03T01:04:01;54.05;;;33.38;;
57746;SDS011;43580;44.014;20.466;2023-04-03T01:06:29;58.53;;;33.80;;
57746;SDS011;43580;44.014;20.466;2023-04-03T01:08:57;70.65;;;41.78;;
57746;SDS011;43580;44.014;20.466;2023-04-03T01:11:24;51.45;;;31.23;;
57746;SDS011;43580;44.014;20.466;2023-04-03T01:13:51;73.22;;;36.90;;
57746;SDS011;43580;44.014;20.466;2023-04-03T01:16:17;64.82;;;36.90;;
57746;SDS011;43580;44.014;20.466;2023-04-03T01:18:43;61.53;;;34.90;;
57746;SDS011;43580;44.014;20.466;2023-04-03T01:24:04;118.82;;;54.05;;
57746;SDS011;43580;44.014;20.466;2023-04-03T01:26:33;109.78;;;49.00;;
57746;SDS011;43580;44.014;20.466;2023-04-03T01:29:00;71.18;;;39.15;;
57746;SDS011;43580;44.014;20.466;2023-04-03T01:34:02;58.80;;;33.88;;
57746;SDS011;43580;44.014;20.466;2023-04-03T01:36:29;58.47;;;33.20;;
57746;SDS011;43580;44.014;20.466;2023-04-03T01:38:58;62.50;;;35.25;;
57746;SDS011;43580;44.014;20.466;2023-04-03T01:41:25;56.05;;;32.30;;
57746;SDS011;43580;44.014;20.466;2023-04-03T01:43:51;49.58;;;30.70;;
57746;SDS011;43580;44.014;20.466;2023-04-03T01:46:17;46.40;;;28.38;;
57746;SDS011;43580;44.014;20.466;2023-04-03T01:48:44;44.60;;;26.92;;
57746;SDS011;43580;44.014;20.466;2023-04-03T01:51:10;41.50;;;25.25;;
57746;SDS011;43580;44.014;20.466;2023-04-03T01:53:36;41.85;;;25.58;;
57746;SDS011;43580;44.014;20.466;2023-04-03T01:56:02;40.20;;;24.92;;
57746;SDS011;43580;44.014;20.466;2023-04-03T01:58:28;40.58;;;27.27;;
57746;SDS011;43580;44.014;20.466;2023-04-03T02:00:54;47.63;;;29.10;;
57746;SDS011;43580;44.014;20.466;2023-04-03T02:03:20;48.85;;;28.02;;
57746;SDS011;43580;44.014;20.466;2023-04-03T02:05:51;49.30;;;29.02;;
57746;SDS011;43580;44.014;20.466;2023-04-03T02:08:21;43.38;;;28.15;;
57746;SDS011;43580;44.014;20.466;2023-04-03T02:10:47;45.33;;;28.27;;
57746;SDS011;43580;44.014;20.466;2023-04-03T02:13:13;43.38;;;29.00;;
57746;SDS011;43580;44.014;20.466;2023-04-03T02:15:39;48.30;;;30.23;;
57746;SDS011;43580;44.014;20.466;2023-04-03T02:18:06;43.42;;;27.38;;
57746;SDS011;43580;44.014;20.466;2023-04-03T02:20:32;43.08;;;26.65;;
57746;SDS011;43580;44.014;20.466;2023-04-03T02:22:58;42.42;;;26.85;;
57746;SDS011;43580;44.014;20.466;2023-04-03T02:25:25;33.60;;;22.98;;
57746;SDS011;43580;44.014;20.466;2023-04-03T02:27:51;37.33;;;25.02;;
57746;SDS011;43580;44.014;20.466;2023-04-03T02:30:17;40.80;;;26.38;;
57746;SDS011;43580;44.014;20.466;2023-04-03T02:32:43;37.33;;;24.60;;
57746;SDS011;43580;44.014;20.466;2023-04-03T02:35:09;35.10;;;24.85;;
57746;SDS011;43580;44.014;20.466;2023-04-03T02:37:36;33.85;;;23.58;;
57746;SDS011;43580;44.014;20.466;2023-04-03T02:40:02;33.47;;;24.90;;
57746;SDS011;43580;44.014;20.466;2023-04-03T02:42:28;33.75;;;25.27;;
57746;SDS011;43580;44.014;20.466;2023-04-03T02:44:54;35.58;;;28.38;;
57746;SDS011;43580;44.014;20.466;2023-04-03T02:47:21;37.83;;;29.20;;
57746;SDS011;43580;44.014;20.466;2023-04-03T02:49:47;36.70;;;31.48;;
57746;SDS011;43580;44.014;20.466;2023-04-03T02:52:13;38.90;;;32.03;;
57746;SDS011;43580;44.014;20.466;2023-04-03T02:54:39;37.80;;;30.60;;
57746;SDS011;43580;44.014;20.466;2023-04-03T02:57:05;40.03;;;31.38;;
57746;SDS011;43580;44.014;20.466;2023-04-03T02:59:34;44.67;;;32.97;;
57746;SDS011;43580;44.014;20.466;2023-04-03T03:02:00;49.67;;;36.58;;
57746;SDS011;43580;44.014;20.466;2023-04-03T03:04:26;51.13;;;37.67;;
57746;SDS011;43580;44.014;20.466;2023-04-03T03:06:52;56.15;;;41.55;;
57746;SDS011;43580;44.014;20.466;2023-04-03T03:09:18;59.05;;;43.65;;
57746;SDS011;43580;44.014;20.466;2023-04-03T03:11:44;58.20;;;44.38;;
57746;SDS011;43580;44.014;20.466;2023-04-03T03:14:10;41.25;;;34.95;;
57746;SDS011;43580;44.014;20.466;2023-04-03T03:16:39;39.75;;;32.40;;
57746;SDS011;43580;44.014;20.466;2023-04-03T03:19:05;28.88;;;21.80;;
57746;SDS011;43580;44.014;20.466;2023-04-03T03:21:31;24.92;;;17.75;;
57746;SDS011;43580;44.014;20.466;2023-04-03T03:23:57;16.33;;;13.65;;
57746;SDS011;43580;44.014;20.466;2023-04-03T03:26:24;14.05;;;12.55;;
57746;SDS011;43580;44.014;20.466;2023-04-03T03:28:50;18.50;;;12.35;;
57746;SDS011;43580;44.014;20.466;2023-04-03T03:31:16;21.50;;;16.92;;
57746;SDS011;43580;44.014;20.466;2023-04-03T03:33:42;27.88;;;19.38;;
57746;SDS011;43580;44.014;20.466;2023-04-03T03:36:08;33.22;;;24.55;;
57746;SDS011;43580;44.014;20.466;2023-04-03T03:38:35;40.20;;;27.65;;
57746;SDS011;43580;44.014;20.466;2023-04-03T03:41:01;34.38;;;27.65;;
57746;SDS011;43580;44.014;20.466;2023-04-03T03:43:27;37.13;;;28.00;;
57746;SDS011;43580;44.014;20.466;2023-04-03T03:45:53;37.42;;;26.63;;
57746;SDS011;43580;44.014;20.466;2023-04-03T03:48:20;44.33;;;26.20;;
57746;SDS011;43580;44.014;20.466;2023-04-03T03:50:47;37.83;;;22.92;;
57746;SDS011;43580;44.014;20.466;2023-04-03T03:53:13;40.28;;;30.13;;
57746;SDS011;43580;44.014;20.466;2023-04-03T03:55:40;37.03;;;27.10;;
57746;SDS011;43580;44.014;20.466;2023-04-03T03:58:06;36.70;;;25.55;;
57746;SDS011;43580;44.014;20.466;2023-04-03T04:00:32;36.08;;;21.50;;
57746;SDS011;43580;44.014;20.466;2023-04-03T04:03:00;51.33;;;37.28;;
57746;SDS011;43580;44.014;20.466;2023-04-03T04:05:27;46.35;;;29.23;;
57746;SDS011;43580;44.014;20.466;2023-04-03T04:07:53;34.20;;;20.70;;
57746;SDS011;43580;44.014;20.466;2023-04-03T04:10:21;29.00;;;25.13;;
57746;SDS011;43580;44.014;20.466;2023-04-03T04:12:48;33.78;;;23.00;;
57746;SDS011;43580;44.014;20.466;2023-04-03T04:15:16;27.05;;;18.17;;
57746;SDS011;43580;44.014;20.466;2023-04-03T04:17:43;25.30;;;19.40;;
57746;SDS011;43580;44.014;20.466;2023-04-03T04:20:09;19.55;;;14.00;;
57746;SDS011;43580;44.014;20.466;2023-04-03T04:22:37;27.45;;;19.92;;
57746;SDS011;43580;44.014;20.466;2023-04-03T04:25:04;26.38;;;17.20;;
57746;SDS011;43580;44.014;20.466;2023-04-03T04:27:30;25.52;;;19.17;;
57746;SDS011;43580;44.014;20.466;2023-04-03T04:29:56;30.02;;;20.83;;
57746;SDS011;43580;44.014;20.466;2023-04-03T04:32:22;27.40;;;19.45;;
57746;SDS011;43580;44.014;20.466;2023-04-03T04:34:48;30.85;;;21.45;;
57746;SDS011;43580;44.014;20.466;2023-04-03T04:37:14;23.80;;;18.10;;
57746;SDS011;43580;44.014;20.466;2023-04-03T04:39:41;27.98;;;21.63;;
57746;SDS011;43580;44.014;20.466;2023-04-03T04:42:09;32.45;;;25.42;;
57746;SDS011;43580;44.014;20.466;2023-04-03T04:44:38;35.35;;;26.90;;
57746;SDS011;43580;44.014;20.466;2023-04-03T04:47:04;29.83;;;25.88;;
57746;SDS011;43580;44.014;20.466;2023-04-03T04:49:30;40.03;;;28.15;;
57746;SDS011;43580;44.014;20.466;2023-04-03T04:51:56;47.40;;;31.88;;
57746;SDS011;43580;44.014;20.466;2023-04-03T04:54:22;42.13;;;32.47;;
57746;SDS011;43580;44.014;20.466;2023-04-03T04:56:48;43.15;;;26.60;;
57746;SDS011;43580;44.014;20.466;2023-04-03T04:59:14;41.88;;;27.73;;
57746;SDS011;43580;44.014;20.466;2023-04-03T05:01:40;28.52;;;14.73;;
57746;SDS011;43580;44.014;20.466;2023-04-03T05:04:06;41.40;;;31.00;;
57746;SDS011;43580;44.014;20.466;2023-04-03T05:06:34;42.15;;;32.78;;
57746;SDS011;43580;44.014;20.466;2023-04-03T05:09:00;43.33;;;29.55;;
57746;SDS011;43580;44.014;20.466;2023-04-03T05:11:26;32.03;;;26.20;;
57746;SDS011;43580;44.014;20.466;2023-04-03T05:13:52;36.58;;;28.25;;
57746;SDS011;43580;44.014;20.466;2023-04-03T05:16:18;44.63;;;24.52;;
57746;SDS011;43580;44.014;20.466;2023-04-03T05:18:44;65.63;;;42.60;;
57746;SDS011;43580;44.014;20.466;2023-04-03T05:21:10;38.42;;;24.80;;
57746;SDS011;43580;44.014;20.466;2023-04-03T05:23:37;37.13;;;26.90;;
57746;SDS011;43580;44.014;20.466;2023-04-03T05:26:03;34.60;;;24.90;;
57746;SDS011;43580;44.014;20.466;2023-04-03T05:28:29;39.92;;;26.65;;
57746;SDS011;43580;44.014;20.466;2023-04-03T05:30:55;34.95;;;22.17;;
57746;SDS011;43580;44.014;20.466;2023-04-03T05:33:22;35.47;;;26.27;;
57746;SDS011;43580;44.014;20.466;2023-04-03T05:35:48;34.40;;;21.90;;
57746;SDS011;43580;44.014;20.466;2023-04-03T05:38:14;32.65;;;23.85;;
57746;SDS011;43580;44.014;20.466;2023-04-03T05:40:40;25.13;;;18.23;;
57746;SDS011;43580;44.014;20.466;2023-04-03T05:43:09;28.98;;;16.42;;
57746;SDS011;43580;44.014;20.466;2023-04-03T05:45:35;63.28;;;43.25;;
57746;SDS011;43580;44.014;20.466;2023-04-03T05:48:01;30.52;;;20.98;;
57746;SDS011;43580;44.014;20.466;2023-04-03T05:50:27;31.13;;;17.83;;
57746;SDS011;43580;44.014;20.466;2023-04-03T05:52:54;23.13;;;14.85;;
57746;SDS011;43580;44.014;20.466;2023-04-03T05:55:21;29.40;;;16.75;;
57746;SDS011;43580;44.014;20.466;2023-04-03T05:57:50;25.95;;;17.63;;
57746;SDS011;43580;44.014;20.466;2023-04-03T06:00:16;27.30;;;18.77;;
57746;SDS011;43580;44.014;20.466;2023-04-03T06:02:42;24.52;;;16.60;;
57746;SDS011;43580;44.014;20.466;2023-04-03T06:05:09;25.63;;;17.55;;
57746;SDS011;43580;44.014;20.466;2023-04-03T06:07:37;28.23;;;19.88;;
57746;SDS011;43580;44.014;20.466;2023-04-03T06:10:03;32.22;;;24.50;;
57746;SDS011;43580;44.014;20.466;2023-04-03T06:12:32;39.40;;;22.95;;
57746;SDS011;43580;44.014;20.466;2023-04-03T06:14:58;52.72;;;26.15;;
57746;SDS011;43580;44.014;20.466;2023-04-03T06:17:24;64.45;;;35.08;;
57746;SDS011;43580;44.014;20.466;2023-04-03T06:19:51;58.90;;;36.80;;
57746;SDS011;43580;44.014;20.466;2023-04-03T06:22:17;29.52;;;20.00;;
57746;SDS011;43580;44.014;20.466;2023-04-03T06:24:44;23.40;;;15.43;;
57746;SDS011;43580;44.014;20.466;2023-04-03T06:27:11;18.63;;;11.85;;
57746;SDS011;43580;44.014;20.466;2023-04-03T06:29:37;15.90;;;11.50;;
57746;SDS011;43580;44.014;20.466;2023-04-03T06:32:06;15.27;;;11.95;;
57746;SDS011;43580;44.014;20.466;2023-04-03T06:34:32;16.75;;;12.02;;
57746;SDS011;43580;44.014;20.466;2023-04-03T06:36:58;15.70;;;9.52;;
57746;SDS011;43580;44.014;20.466;2023-04-03T06:39:24;9.60;;;6.90;;
57746;SDS011;43580;44.014;20.466;2023-04-03T06:41:53;12.32;;;10.23;;
57746;SDS011;43580;44.014;20.466;2023-04-03T06:44:21;15.90;;;10.85;;
57746;SDS011;43580;44.014;20.466;2023-04-03T06:46:50;18.15;;;11.73;;
57746;SDS011;43580;44.014;20.466;2023-04-03T06:49:16;17.58;;;12.57;;
57746;SDS011;43580;44.014;20.466;2023-04-03T06:51:42;18.60;;;13.32;;
57746;SDS011;43580;44.014;20.466;2023-04-03T06:54:08;20.77;;;13.63;;
57746;SDS011;43580;44.014;20.466;2023-04-03T06:56:35;27.92;;;16.98;;
57746;SDS011;43580;44.014;20.466;2023-04-03T06:59:01;31.80;;;16.17;;
57746;SDS011;43580;44.014;20.466;2023-04-03T07:01:28;17.35;;;11.18;;
57746;SDS011;43580;44.014;20.466;2023-04-03T07:03:54;17.50;;;10.45;;
57746;SDS011;43580;44.014;20.466;2023-04-03T07:06:21;20.63;;;13.00;;
57746;SDS011;43580;44.014;20.466;2023-04-03T07:08:47;11.88;;;8.85;;
57746;SDS011;43580;44.014;20.466;2023-04-03T07:11:14;14.13;;;9.93;;
57746;SDS011;43580;44.014;20.466;2023-04-03T07:13:40;24.50;;;14.23;;
57746;SDS011;43580;44.014;20.466;2023-04-03T07:16:07;11.20;;;8.18;;
57746;SDS011;43580;44.014;20.466;2023-04-03T07:18:33;13.50;;;8.80;;
57746;SDS011;43580;44.014;20.466;2023-04-03T07:20:59;12.80;;;8.90;;
57746;SDS011;43580;44.014;20.466;2023-04-03T07:23:26;15.82;;;11.38;;
57746;SDS011;43580;44.014;20.466;2023-04-03T07:25:52;16.45;;;11.27;;
57746;SDS011;43580;44.014;20.466;2023-04-03T07:28:19;20.10;;;14.32;;
57746;SDS011;43580;44.014;20.466;2023-04-03T07:30:46;12.75;;;8.50;;
57746;SDS011;43580;44.014;20.466;2023-04-03T07:33:13;12.43;;;8.55;;
57746;SDS011;43580;44.014;20.466;2023-04-03T07:35:39;23.52;;;19.48;;
57746;SDS011;43580;44.014;20.466;2023-04-03T07:38:06;10.88;;;7.88;;
57746;SDS011;43580;44.014;20.466;2023-04-03T07:40:32;16.38;;;10.73;;
57746;SDS011;43580;44.014;20.466;2023-04-03T07:42:58;9.27;;;5.85;;
57746;SDS011;43580;44.014;20.466;2023-04-03T07:45:24;10.82;;;7.70;;
57746;SDS011;43580;44.014;20.466;2023-04-03T07:47:51;13.70;;;8.85;;
57746;SDS011;43580;44.014;20.466;2023-04-03T07:50:17;13.35;;;9.20;;
57746;SDS011;43580;44.014;20.466;2023-04-03T07:52:43;15.25;;;12.20;;
57746;SDS011;43580;44.014;20.466;2023-04-03T07:55:10;13.73;;;10.43;;
57746;SDS011;43580;44.014;20.466;2023-04-03T07:57:36;18.13;;;13.63;;
57746;SDS011;43580;44.014;20.466;2023-04-03T08:00:03;16.45;;;12.80;;
57746;SDS011;43580;44.014;20.466;2023-04-03T08:02:29;23.70;;;14.65;;
57746;SDS011;43580;44.014;20.466;2023-04-03T08:04:57;19.70;;;15.57;;
57746;SDS011;43580;44.014;20.466;2023-04-03T08:07:23;19.85;;;9.65;;
57746;SDS011;43580;44.014;20.466;2023-04-03T08:09:50;13.70;;;9.70;;
57746;SDS011;43580;44.014;20.466;2023-04-03T08:12:16;14.63;;;12.38;;
57746;SDS011;43580;44.014;20.466;2023-04-03T08:14:45;13.30;;;9.55;;
57746;SDS011;43580;44.014;20.466;2023-04-03T08:17:11;14.20;;;10.68;;
57746;SDS011;43580;44.014;20.466;2023-04-03T08:19:38;14.40;;;11.93;;
57746;SDS011;43580;44.014;20.466;2023-04-03T08:22:04;15.98;;;12.30;;
57746;SDS011;43580;44.014;20.466;2023-04-03T08:24:34;14.93;;;13.05;;
57746;SDS011;43580;44.014;20.466;2023-04-03T08:27:00;16.02;;;11.23;;
57746;SDS011;43580;44.014;20.466;2023-04-03T08:29:26;12.65;;;9.60;;
57746;SDS011;43580;44.014;20.466;2023-04-03T08:31:52;16.67;;;11.75;;
57746;SDS011;43580;44.014;20.466;2023-04-03T08:34:19;14.65;;;11.13;;
57746;SDS011;43580;44.014;20.466;2023-04-03T08:36:45;14.73;;;11.70;;
57746;SDS011;43580;44.014;20.466;2023-04-03T08:39:11;13.20;;;9.85;;
57746;SDS011;43580;44.014;20.466;2023-04-03T08:41:40;12.50;;;9.93;;
57746;SDS011;43580;44.014;20.466;2023-04-03T08:46:54;19.10;;;13.97;;
57746;SDS011;43580;44.014;20.466;2023-04-03T08:49:35;12.32;;;9.88;;
57746;SDS011;43580;44.014;20.466;2023-04-03T08:52:10;19.55;;;14.75;;
57746;SDS011;43580;44.014;20.466;2023-04-03T08:54:41;17.17;;;12.95;;
57746;SDS011;43580;44.014;20.466;2023-04-03T08:57:12;22.30;;;15.63;;
57746;SDS011;43580;44.014;20.466;2023-04-03T08:59:38;8.25;;;6.40;;
57746;SDS011;43580;44.014;20.466;2023-04-03T09:02:18;14.90;;;10.52;;
57746;SDS011;43580;44.014;20.466;2023-04-03T09:04:47;27.92;;;24.55;;
57746;SDS011;43580;44.014;20.466;2023-04-03T09:07:22;14.73;;;11.18;;
57746;SDS011;43580;44.014;20.466;2023-04-03T09:09:48;18.63;;;13.93;;
57746;SDS011;43580;44.014;20.466;2023-04-03T09:20:05;25.05;;;19.45;;
57746;SDS011;43580;44.014;20.466;2023-04-03T09:22:33;18.50;;;14.60;;
57746;SDS011;43580;44.014;20.466;2023-04-03T09:25:21;19.60;;;13.13;;
57746;SDS011;43580;44.014;20.466;2023-04-03T09:27:49;15.77;;;11.77;;
57746;SDS011;43580;44.014;20.466;2023-04-03T09:30:17;23.13;;;18.88;;
57746;SDS011;43580;44.014;20.466;2023-04-03T09:32:47;16.25;;;11.18;;
57746;SDS011;43580;44.014;20.466;2023-04-03T09:35:29;15.90;;;10.98;;
57746;SDS011;43580;44.014;20.466;2023-04-03T09:38:00;32.80;;;27.98;;
57746;SDS011;43580;44.014;20.466;2023-04-03T09:43:00;15.05;;;11.50;;
57746;SDS011;43580;44.014;20.466;2023-04-03T09:45:30;13.25;;;9.52;;
57746;SDS011;43580;44.014;20.466;2023-04-03T09:50:35;10.05;;;7.03;;
57746;SDS011;43580;44.014;20.466;2023-04-03T09:53:06;15.25;;;11.10;;
57746;SDS011;43580;44.014;20.466;2023-04-03T09:55:32;16.42;;;11.77;;
57746;SDS011;43580;44.014;20.466;2023-04-03T09:58:11;10.27;;;8.55;;
57746;SDS011;43580;44.014;20.466;2023-04-03T10:00:53;18.25;;;12.75;;
57746;SDS011;43580;44.014;20.466;2023-04-03T10:03:23;14.10;;;9.32;;
57746;SDS011;43580;44.014;20.466;2023-04-03T10:05:49;16.00;;;13.77;;
57746;SDS011;43580;44.014;20.466;2023-04-03T10:08:24;13.43;;;9.98;;
57746;SDS011;43580;44.014;20.466;2023-04-03T10:11:13;14.82;;;10.32;;
57746;SDS011;43580;44.014;20.466;2023-04-03T10:13:49;18.02;;;14.82;;
57746;SDS011;43580;44.014;20.466;2023-04-03T10:16:16;14.63;;;10.80;;
57746;SDS011;43580;44.014;20.466;2023-04-03T10:18:52;11.88;;;9.88;;
57746;SDS011;43580;44.014;20.466;2023-04-03T10:36:23;16.83;;;13.18;;
57746;SDS011;43580;44.014;20.466;2023-04-03T10:38:55;15.60;;;12.15;;
57746;SDS011;43580;44.014;20.466;2023-04-03T10:43:56;15.80;;;11.50;;
57746;SDS011;43580;44.014;20.466;2023-04-03T10:51:44;15.68;;;10.73;;
57746;SDS011;43580;44.014;20.466;2023-04-03T10:54:12;22.58;;;16.95;;
57746;SDS011;43580;44.014;20.466;2023-04-03T11:01:41;19.02;;;12.57;;
57746;SDS011;43580;44.014;20.466;2023-04-03T11:04:08;19.58;;;14.02;;
57746;SDS011;43580;44.014;20.466;2023-04-03T11:06:37;22.60;;;14.68;;
57746;SDS011;43580;44.014;20.466;2023-04-03T11:09:23;23.05;;;17.00;;
57746;SDS011;43580;44.014;20.466;2023-04-03T11:11:50;22.33;;;17.67;;
57746;SDS011;43580;44.014;20.466;2023-04-03T11:16:47;32.25;;;21.77;;
57746;SDS011;43580;44.014;20.466;2023-04-03T11:19:18;22.90;;;17.52;;
57746;SDS011;43580;44.014;20.466;2023-04-03T11:21:54;22.95;;;15.90;;
57746;SDS011;43580;44.014;20.466;2023-04-03T11:24:24;25.88;;;18.67;;
57746;SDS011;43580;44.014;20.466;2023-04-03T11:26:51;28.13;;;20.17;;
57746;SDS011;43580;44.014;20.466;2023-04-03T11:29:20;24.42;;;21.05;;
57746;SDS011;43580;44.014;20.466;2023-04-03T11:37:04;36.53;;;26.45;;
57746;SDS011;43580;44.014;20.466;2023-04-03T11:39:32;31.13;;;20.80;;
57746;SDS011;43580;44.014;20.466;2023-04-03T11:42:15;34.65;;;25.13;;
57746;SDS011;43580;44.014;20.466;2023-04-03T11:44:42;37.22;;;25.30;;
57746;SDS011;43580;44.014;20.466;2023-04-03T11:47:11;38.20;;;24.13;;
57746;SDS011;43580;44.014;20.466;2023-04-03T11:49:54;40.85;;;30.38;;
57746;SDS011;43580;44.014;20.466;2023-04-03T11:58:32;31.92;;;25.40;;
57746;SDS011;43580;44.014;20.466;2023-04-03T12:05:54;43.80;;;31.65;;
57746;SDS011;43580;44.014;20.466;2023-04-03T12:08:25;38.08;;;28.08;;
57746;SDS011;43580;44.014;20.466;2023-04-03T12:16:02;38.90;;;30.30;;
57746;SDS011;43580;44.014;20.466;2023-04-03T12:18:41;39.20;;;28.65;;
57746;SDS011;43580;44.014;20.466;2023-04-03T12:21:09;32.22;;;26.80;;
57746;SDS011;43580;44.014;20.466;2023-04-03T12:23:36;37.72;;;28.00;;
57746;SDS011;43580;44.014;20.466;2023-04-03T12:26:04;36.80;;;23.88;;
57746;SDS011;43580;44.014;20.466;2023-04-03T12:28:35;60.45;;;39.75;;
57746;SDS011;43580;44.014;20.466;2023-04-03T12:31:04;36.40;;;25.35;;
57746;SDS011;43580;44.014;20.466;2023-04-03T12:33:38;34.28;;;25.10;;
57746;SDS011;43580;44.014;20.466;2023-04-03T12:36:21;37.72;;;26.23;;
57746;SDS011;43580;44.014;20.466;2023-04-03T12:41:37;35.97;;;28.85;;
57746;SDS011;43580;44.014;20.466;2023-04-03T12:46:50;37.22;;;25.90;;
57746;SDS011;43580;44.014;20.466;2023-04-03T12:51:55;31.05;;;22.95;;
57746;SDS011;43580;44.014;20.466;2023-04-03T12:54:23;31.95;;;21.83;;
57746;SDS011;43580;44.014;20.466;2023-04-03T12:56:49;29.02;;;20.77;;
57746;SDS011;43580;44.014;20.466;2023-04-03T12:59:22;31.98;;;24.27;;
57746;SDS011;43580;44.014;20.466;2023-04-03T13:01:58;33.45;;;22.75;;
57746;SDS011;43580;44.014;20.466;2023-04-03T13:04:25;32.58;;;22.70;;
57746;SDS011;43580;44.014;20.466;2023-04-03T13:06:52;31.75;;;24.67;;
57746;SDS011;43580;44.014;20.466;2023-04-03T13:09:23;38.22;;;27.83;;
57746;SDS011;43580;44.014;20.466;2023-04-03T13:11:51;33.45;;;25.67;;
57746;SDS011;43580;44.014;20.466;2023-04-03T13:14:19;47.60;;;29.88;;
57746;SDS011;43580;44.014;20.466;2023-04-03T13:16:53;29.98;;;25.92;;
57746;SDS011;43580;44.014;20.466;2023-04-03T13:19:21;41.28;;;29.73;;
57746;SDS011;43580;44.014;20.466;2023-04-03T13:21:48;55.53;;;41.78;;
57746;SDS011;43580;44.014;20.466;2023-04-03T13:24:16;55.80;;;32.88;;
57746;SDS011;43580;44.014;20.466;2023-04-03T13:26:42;40.63;;;30.80;;
57746;SDS011;43580;44.014;20.466;2023-04-03T13:29:42;37.53;;;28.48;;
57746;SDS011;43580;44.014;20.466;2023-04-03T13:32:01;30.35;;;25.23;;
57746;SDS011;43580;44.014;20.466;2023-04-03T13:34:29;41.05;;;32.05;;
57746;SDS011;43580;44.014;20.466;2023-04-03T13:37:06;39.97;;;27.95;;
57746;SDS011;43580;44.014;20.466;2023-04-03T13:39:37;32.35;;;24.73;;
57746;SDS011;43580;44.014;20.466;2023-04-03T13:42:15;40.90;;;28.58;;
57746;SDS011;43580;44.014;20.466;2023-04-03T13:44:42;127.97;;;75.40;;
57746;SDS011;43580;44.014;20.466;2023-04-03T13:47:17;65.00;;;40.58;;
57746;SDS011;43580;44.014;20.466;2023-04-03T13:49:44;43.10;;;35.85;;
57746;SDS011;43580;44.014;20.466;2023-04-03T13:52:22;58.13;;;40.63;;
57746;SDS011;43580;44.014;20.466;2023-04-03T13:54:54;39.42;;;32.17;;
57746;SDS011;43580;44.014;20.466;2023-04-03T13:57:21;46.22;;;34.13;;
57746;SDS011;43580;44.014;20.466;2023-04-03T13:59:50;44.58;;;32.03;;
57746;SDS011;43580;44.014;20.466;2023-04-03T14:07:12;38.45;;;28.05;;
57746;SDS011;43580;44.014;20.466;2023-04-03T14:09:38;42.88;;;33.28;;
57746;SDS011;43580;44.014;20.466;2023-04-03T14:12:06;56.55;;;40.83;;
57746;SDS011;43580;44.014;20.466;2023-04-03T14:14:33;60.40;;;41.08;;
57746;SDS011;43580;44.014;20.466;2023-04-03T14:17:00;52.42;;;34.75;;
57746;SDS011;43580;44.014;20.466;2023-04-03T14:19:31;49.55;;;34.65;;
57746;SDS011;43580;44.014;20.466;2023-04-03T14:21:58;45.63;;;32.80;;
57746;SDS011;43580;44.014;20.466;2023-04-03T14:24:24;51.47;;;35.78;;
57746;SDS011;43580;44.014;20.466;2023-04-03T14:26:53;57.58;;;38.63;;
57746;SDS011;43580;44.014;20.466;2023-04-03T14:29:19;58.13;;;39.47;;
57746;SDS011;43580;44.014;20.466;2023-04-03T14:31:46;48.30;;;29.02;;
57746;SDS011;43580;44.014;20.466;2023-04-03T14:34:13;51.35;;;36.38;;
57746;SDS011;43580;44.014;20.466;2023-04-03T14:36:40;46.40;;;34.30;;
57746;SDS011;43580;44.014;20.466;2023-04-03T14:39:07;73.47;;;53.28;;
57746;SDS011;43580;44.014;20.466;2023-04-03T14:41:33;55.08;;;39.67;;
57746;SDS011;43580;44.014;20.466;2023-04-03T14:44:00;56.40;;;38.38;;
57746;SDS011;43580;44.014;20.466;2023-04-03T14:46:30;61.60;;;44.20;;
57746;SDS011;43580;44.014;20.466;2023-04-03T14:48:57;61.75;;;39.13;;
57746;SDS011;43580;44.014;20.466;2023-04-03T14:51:23;53.65;;;37.65;;
57746;SDS011;43580;44.014;20.466;2023-04-03T14:53:49;51.17;;;35.65;;
57746;SDS011;43580;44.014;20.466;2023-04-03T14:56:21;49.80;;;32.47;;
57746;SDS011;43580;44.014;20.466;2023-04-03T14:58:49;54.95;;;39.05;;
57746;SDS011;43580;44.014;20.466;2023-04-03T15:01:16;67.68;;;44.60;;
57746;SDS011;43580;44.014;20.466;2023-04-03T15:03:42;58.22;;;39.47;;
57746;SDS011;43580;44.014;20.466;2023-04-03T15:06:11;61.78;;;44.42;;
57746;SDS011;43580;44.014;20.466;2023-04-03T15:08:37;56.22;;;39.25;;
57746;SDS011;43580;44.014;20.466;2023-04-03T15:11:03;62.55;;;40.50;;
57746;SDS011;43580;44.014;20.466;2023-04-03T15:13:30;63.40;;;47.63;;
57746;SDS011;43580;44.014;20.466;2023-04-03T15:15:56;60.30;;;41.35;;
57746;SDS011;43580;44.014;20.466;2023-04-03T15:18:25;48.13;;;35.45;;
57746;SDS011;43580;44.014;20.466;2023-04-03T15:20:55;50.40;;;34.25;;
57746;SDS011;43580;44.014;20.466;2023-04-03T15:23:21;38.78;;;26.67;;
57746;SDS011;43580;44.014;20.466;2023-04-03T15:25:51;54.65;;;41.47;;
57746;SDS011;43580;44.014;20.466;2023-04-03T15:30:44;50.28;;;32.85;;
57746;SDS011;43580;44.014;20.466;2023-04-03T15:33:10;49.67;;;29.25;;
57746;SDS011;43580;44.014;20.466;2023-04-03T15:35:36;53.53;;;39.13;;
57746;SDS011;43580;44.014;20.466;2023-04-03T15:38:02;52.47;;;40.03;;
57746;SDS011;43580;44.014;20.466;2023-04-03T15:40:28;47.33;;;36.80;;
57746;SDS011;43580;44.014;20.466;2023-04-03T15:42:54;47.53;;;32.58;;